Shinsei Maru — JD2188 — position and weather

sailwx.info

Track history (hours):
 
Tides and Currents Weather Stations Pressure Air Temp Water Temp Dewpoint Dewpoint Depression Visibility Wind Speed Wind Dir Waves Ship Positions

Shinsei Maru

Last reported at 2018-Apr-26 03:30 UTC. Time now 2018-Apr-26 03:30 UTC.
Position N 35°30' E 139°45'.

Length 104 m; draft 6.5 m.

Type: Tanker. MMSI: 431301775.

Date/timePositionNaut miles runAvg speedWind from/ knotsBaromVisibWave heightAir tempDewpointWater temp
2018-Apr-26 03:30N 35°30' E 139°45'0 0.0
2018-Apr-26 03:00N 35°30' E 139°45'0 0.0
2018-Apr-26 02:30N 35°30' E 139°45'0 0.0
2018-Apr-26 02:00N 35°30' E 139°45'0 0.0
2018-Apr-26 01:30N 35°30' E 139°45'0 0.0
2018-Apr-26 01:00N 35°30' E 139°45'0 0.0
2018-Apr-26 00:30N 35°30' E 139°45'0 0.0
2018-Apr-26 00:00N 35°30' E 139°45'1 1.9
2018-Apr-25 23:30N 35°30' E 139°44'4 7.7
2018-Apr-25 23:00N 35°26' E 139°44'4 7.6
2018-Apr-25 22:29N 35°22' E 139°44'0 0.1
2018-Apr-25 21:59N 35°22' E 139°44'0 0.1
2018-Apr-25 21:29N 35°22' E 139°44'0 0.1
2018-Apr-25 20:59N 35°22' E 139°44'0 0.1
2018-Apr-25 20:26N 35°22' E 139°44'0 0.0
2018-Apr-25 19:56N 35°22' E 139°44'0 0.1
2018-Apr-25 19:29N 35°22' E 139°44'0 0.1
2018-Apr-25 18:59N 35°22' E 139°44'0 0.1
2018-Apr-25 18:29N 35°22' E 139°44'0 0.0
2018-Apr-25 17:56N 35°22' E 139°44'0 0.1
2018-Apr-25 17:29N 35°22' E 139°44'0 0.0
2018-Apr-25 16:59N 35°22' E 139°44'0 0.0
2018-Apr-25 16:29N 35°22' E 139°44'0 0.2
2018-Apr-25 15:59N 35°22' E 139°44'0 0.1
2018-Apr-25 15:29N 35°22' E 139°44'0 0.0
2018-Apr-25 14:59N 35°22' E 139°44'0 0.0
2018-Apr-25 14:29N 35°22' E 139°44'0 0.0
2018-Apr-25 13:59N 35°22' E 139°44'0 0.0
2018-Apr-25 13:29N 35°22' E 139°44'0 0.0
2018-Apr-25 12:59N 35°22' E 139°44'0 0.0
2018-Apr-25 12:29N 35°22' E 139°44'0 0.0
2018-Apr-25 11:59N 35°22' E 139°44'0 0.0
2018-Apr-25 11:29N 35°22' E 139°44'0 0.1
2018-Apr-25 10:59N 35°22' E 139°44'0 0.1
2018-Apr-25 10:29N 35°22' E 139°44'0 0.0
2018-Apr-25 09:59N 35°22' E 139°44'0 0.1
2018-Apr-25 09:29N 35°22' E 139°45'0 0.1
2018-Apr-25 08:59N 35°22' E 139°44'0 0.1
2018-Apr-25 08:29N 35°22' E 139°45'0 0.1
2018-Apr-25 07:59N 35°22' E 139°44'0 0.0
2018-Apr-25 07:29N 35°22' E 139°44'0 0.1
2018-Apr-25 06:59N 35°22' E 139°45'0 0.0
2018-Apr-25 06:26N 35°22' E 139°45'0 0.1
2018-Apr-25 05:59N 35°22' E 139°45'0 0.0
2018-Apr-25 05:26N 35°22' E 139°45'0 0.0
2018-Apr-25 04:59N 35°22' E 139°45'0 0.1
2018-Apr-25 04:29N 35°22' E 139°45'0 0.0
2018-Apr-25 03:59N 35°22' E 139°45'0 0.0
2018-Apr-25 03:29N 35°22' E 139°45'0 0.0
2018-Apr-25 02:59N 35°22' E 139°45'0 0.1
2018-Apr-25 02:29N 35°22' E 139°44'0 0.0
2018-Apr-25 01:59N 35°22' E 139°44'0 0.0
2018-Apr-25 01:29N 35°22' E 139°44'0 0.0
2018-Apr-25 00:59N 35°22' E 139°44'0 0.1
2018-Apr-25 00:29N 35°22' E 139°44'0 0.1
2018-Apr-24 23:59N 35°22' E 139°44'0 0.1
2018-Apr-24 23:29N 35°22' E 139°44'0 0.1
2018-Apr-24 22:59N 35°22' E 139°44'0 0.0
2018-Apr-24 22:29N 35°22' E 139°44'0 0.0
2018-Apr-24 21:59N 35°22' E 139°44'0 0.0
2018-Apr-24 21:29N 35°22' E 139°44'0 0.0
2018-Apr-24 20:59N 35°22' E 139°44'0 0.0
2018-Apr-24 20:29N 35°22' E 139°44'0 0.0
2018-Apr-24 19:59N 35°22' E 139°44'0 0.0
2018-Apr-24 19:29N 35°22' E 139°44'0 0.0
2018-Apr-24 18:59N 35°22' E 139°44'0 0.0
2018-Apr-24 18:29N 35°22' E 139°44'0 0.0
2018-Apr-24 17:59N 35°22' E 139°44'0 0.0
2018-Apr-24 17:29N 35°22' E 139°44'0 0.9
2018-Apr-24 17:00N 35°23' E 139°45'612.4
2018-Apr-24 16:30N 35°28' E 139°47'2 4.6
2018-Apr-24 15:59N 35°31' E 139°46'0 0.0
2018-Apr-24 15:28N 35°31' E 139°46'0 0.0
2018-Apr-24 14:59N 35°31' E 139°46'0 0.0
2018-Apr-24 14:26N 35°31' E 139°46'0 0.0
2018-Apr-24 13:58N 35°31' E 139°46'0 0.0
2018-Apr-24 13:28N 35°31' E 139°46'0 0.1
2018-Apr-24 12:56N 35°31' E 139°47'0 0.1
2018-Apr-24 12:28N 35°31' E 139°46'0 0.0
2018-Apr-24 11:55N 35°31' E 139°46'0 0.0
2018-Apr-24 11:29N 35°31' E 139°46'0 0.0
2018-Apr-24 10:59N 35°31' E 139°46'0 0.0
2018-Apr-24 10:28N 35°31' E 139°46'0 0.0
2018-Apr-24 09:58N 35°31' E 139°46'0 0.0
2018-Apr-24 09:28N 35°31' E 139°46'0 0.1
2018-Apr-24 08:55N 35°31' E 139°47'0 0.1
2018-Apr-24 08:29N 35°31' E 139°46'0 0.0
2018-Apr-24 07:58N 35°31' E 139°46'0 0.0
2018-Apr-24 07:25N 35°31' E 139°46'0 0.0
2018-Apr-24 06:58N 35°31' E 139°46'0 0.0
2018-Apr-24 06:29N 35°31' E 139°46'0 0.0
2018-Apr-24 05:59N 35°31' E 139°46'1 1.2
2018-Apr-24 05:30N 35°30' E 139°46'4 7.7
2018-Apr-24 05:00N 35°28' E 139°43'4 7.9
2018-Apr-24 04:30N 35°24' E 139°44'0 0.1
2018-Apr-24 04:00N 35°24' E 139°45'0 0.1
2018-Apr-24 03:30N 35°24' E 139°44'0 0.0
2018-Apr-24 03:00N 35°24' E 139°44'1 1.1
2018-Apr-24 02:30N 35°23' E 139°45'611.1
2018-Apr-24 02:00N 35°18' E 139°45'612.4
2018-Apr-24 01:29N 35°12' E 139°47'612.9
2018-Apr-24 01:00N 35°06' E 139°44'713.5
2018-Apr-24 00:30N 35°01' E 139°38'915.2
2018-Apr-23 23:56N 34°56' E 139°30'815.7
2018-Apr-23 23:27N 34°51' E 139°23'1515.5
2018-Apr-23 22:27N 34°41' E 139°09'815.4
2018-Apr-23 21:57N 34°36' E 139°01'714.2
2018-Apr-23 21:28N 34°32' E 138°54'814.0
2018-Apr-23 20:53N 34°32' E 138°44'613.5
2018-Apr-23 20:25N 34°31' E 138°37'18111.7
2018-Apr-23 04:57N 33°49' E 135°04'612.9
2018-Apr-23 04:31N 33°54' E 135°01'712.8
2018-Apr-23 04:00N 34°00' E 134°60'612.6
2018-Apr-23 03:31N 34°07' E 134°59'713.8
2018-Apr-23 03:00N 34°13' E 134°59'713.8
2018-Apr-23 02:31N 34°20' E 134°59'713.4
2018-Apr-23 02:00N 34°27' E 135°01'713.3
2018-Apr-23 01:30N 34°33' E 135°03'510.3
2018-Apr-23 01:00N 34°37' E 134°58'714.7
2018-Apr-23 00:31N 34°33' E 134°50'713.7
2018-Apr-23 00:01N 34°31' E 134°42'714.0
2018-Apr-22 23:30N 34°28' E 134°34'713.8
2018-Apr-22 23:00N 34°25' E 134°26'713.5
2018-Apr-22 22:30N 34°24' E 134°18'814.0
2018-Apr-22 21:56N 34°26' E 134°09'7113.2
2018-Apr-22 16:33N 34°08' E 132°46'114.6
2018-Apr-22 16:27N 34°07' E 132°44'614.2
2018-Apr-22 16:01N 34°04' E 132°38'714.1
2018-Apr-22 15:29N 34°01' E 132°30'612.5
2018-Apr-22 15:01N 34°05' E 132°24'713.0
2018-Apr-22 14:30N 34°09' E 132°19'4 8.6
2018-Apr-22 14:00N 34°12' E 132°15'0 0.0
2018-Apr-22 13:29N 34°12' E 132°15'0 0.0
2018-Apr-22 12:59N 34°12' E 132°15'0 0.0
2018-Apr-22 12:29N 34°12' E 132°15'0 0.0
2018-Apr-22 11:53N 34°12' E 132°15'0 0.0
2018-Apr-22 11:26N 34°12' E 132°15'0 0.0
2018-Apr-22 10:59N 34°12' E 132°15'0 0.0
2018-Apr-22 10:26N 34°12' E 132°15'0 0.0
2018-Apr-22 09:59N 34°12' E 132°15'0 0.0
2018-Apr-22 09:29N 34°12' E 132°15'0 0.0
2018-Apr-22 08:59N 34°12' E 132°15'0 0.0
2018-Apr-22 08:29N 34°12' E 132°15'0 0.0
2018-Apr-22 07:59N 34°12' E 132°15'0 0.0
2018-Apr-22 07:26N 34°12' E 132°15'0 0.0
2018-Apr-22 06:56N 34°12' E 132°15'0 0.0
2018-Apr-22 06:29N 34°12' E 132°15'0 0.0
2018-Apr-22 05:59N 34°12' E 132°15'0 0.0
2018-Apr-22 05:29N 34°12' E 132°15'0 0.0
2018-Apr-22 04:59N 34°12' E 132°15'0 0.0
2018-Apr-22 04:29N 34°12' E 132°15'0 0.0
2018-Apr-22 03:59N 34°12' E 132°15'0 0.0
2018-Apr-22 03:29N 34°12' E 132°15'0 0.0
2018-Apr-22 02:59N 34°12' E 132°15'0 0.0
2018-Apr-22 02:29N 34°12' E 132°15'0 0.0
2018-Apr-22 01:59N 34°12' E 132°15'0 0.0
2018-Apr-22 01:26N 34°12' E 132°15'0 0.0
2018-Apr-22 00:59N 34°12' E 132°15'0 0.0
2018-Apr-22 00:29N 34°12' E 132°15'0 0.0
2018-Apr-21 23:56N 34°12' E 132°15'1 1.5
2018-Apr-21 23:30N 34°12' E 132°15'3 5.1
2018-Apr-21 22:55N 34°10' E 132°19'0 0.0
2018-Apr-21 22:28N 34°10' E 132°19'0 0.0
2018-Apr-21 21:55N 34°10' E 132°19'0 0.0
2018-Apr-21 21:25N 34°10' E 132°19'0 0.0
2018-Apr-21 20:58N 34°10' E 132°19'0 0.0
2018-Apr-21 20:25N 34°10' E 132°19'0 0.0
2018-Apr-21 19:10N 34°10' E 132°19'0 0.0
2018-Apr-21 18:52N 34°10' E 132°19'0 0.0
2018-Apr-21 18:19N 34°10' E 132°19'0 0.0
2018-Apr-21 17:49N 34°10' E 132°19'0 0.0
2018-Apr-21 17:28N 34°10' E 132°19'0 0.0
2018-Apr-21 16:40N 34°10' E 132°19'0 0.0
2018-Apr-21 16:22N 34°10' E 132°19'0 0.0
2018-Apr-21 15:58N 34°10' E 132°19'0 0.0
2018-Apr-21 15:28N 34°10' E 132°19'0 0.0
2018-Apr-21 14:58N 34°10' E 132°19'0 0.1
2018-Apr-21 14:28N 34°10' E 132°19'0 0.0
2018-Apr-21 13:58N 34°10' E 132°19'0 0.0
2018-Apr-21 13:22N 34°10' E 132°19'0 0.0
2018-Apr-21 12:55N 34°10' E 132°19'0 0.0
2018-Apr-21 12:28N 34°10' E 132°19'0 0.0
2018-Apr-21 11:55N 34°10' E 132°19'0 0.0
2018-Apr-21 11:28N 34°10' E 132°19'0 0.0
2018-Apr-21 10:58N 34°10' E 132°19'0 0.0
2018-Apr-21 10:22N 34°10' E 132°19'0 0.0
2018-Apr-21 09:58N 34°10' E 132°19'0 0.0
2018-Apr-21 09:25N 34°10' E 132°19'0 0.0
2018-Apr-21 08:58N 34°11' E 132°19'0 0.0
2018-Apr-21 07:55N 34°11' E 132°19'7 8.9
2018-Apr-21 07:09N 34°06' E 132°24'712.4
2018-Apr-21 06:36N 34°02' E 132°31'114.0
2018-Apr-21 06:30N 34°02' E 132°32'714.1
2018-Apr-21 06:00N 34°05' E 132°40'7212.5
2018-Apr-21 00:16N 34°27' E 134°03'414.5
2018-Apr-21 00:00N 34°26' E 134°08'713.9
2018-Apr-20 23:31N 34°25' E 134°16'713.7
2018-Apr-20 23:00N 34°26' E 134°24'713.9
2018-Apr-20 22:30N 34°29' E 134°32'713.5
2018-Apr-20 22:00N 34°31' E 134°39'713.5
2018-Apr-20 21:30N 34°34' E 134°47'612.4
2018-Apr-20 21:00N 34°36' E 134°54'611.6
2018-Apr-20 20:31N 34°38' E 135°01'611.2
2018-Apr-20 20:00N 34°34' E 135°06'713.3
2018-Apr-20 19:30N 34°28' E 135°04'713.6
2018-Apr-20 19:01N 34°22' E 135°01'613.0
2018-Apr-20 18:31N 34°15' E 134°60'714.0
2018-Apr-20 18:00N 34°08' E 135°01'714.0
2018-Apr-20 17:31N 34°01' E 135°01'713.6
2018-Apr-20 17:01N 33°54' E 135°02'713.4
2018-Apr-20 16:29N 33°48' E 135°06'5011.7
2018-Apr-20 12:14N 33°33' E 136°03'514.0
2018-Apr-20 11:51N 33°37' E 136°08'1413.7
2018-Apr-20 10:52N 33°46' E 136°20'2013.6
2018-Apr-20 09:25N 33°59' E 136°37'613.7
2018-Apr-20 08:59N 34°03' E 136°43'714.0
2018-Apr-20 08:29N 34°08' E 136°49'2113.1
2018-Apr-20 06:53N 34°26' E 137°01'513.3
2018-Apr-20 06:30N 34°32' E 137°01'1212.9
2018-Apr-20 05:34N 34°40' E 136°51'113.7
2018-Apr-20 05:30N 34°40' E 136°50'714.1
2018-Apr-20 05:01N 34°47' E 136°46'714.0
2018-Apr-20 04:30N 34°54' E 136°46'713.3
2018-Apr-20 04:00N 34°60' E 136°49'5 8.1
2018-Apr-20 03:26N 35°04' E 136°52'0 0.0
2018-Apr-20 02:59N 35°04' E 136°52'0 0.0
2018-Apr-20 02:29N 35°04' E 136°52'0 0.0
2018-Apr-20 01:59N 35°04' E 136°52'0 0.0
2018-Apr-20 01:29N 35°04' E 136°52'0 0.0
2018-Apr-20 00:59N 35°04' E 136°52'0 0.0
2018-Apr-20 00:29N 35°04' E 136°52'0 0.0
2018-Apr-19 23:56N 35°04' E 136°52'0 0.5
2018-Apr-19 23:31N 35°04' E 136°52'4 7.7
2018-Apr-19 23:00N 35°00' E 136°50'510.2
2018-Apr-19 22:30N 34°57' E 136°45'0 0.9
2018-Apr-19 22:00N 34°56' E 136°45'0 0.1
2018-Apr-19 21:30N 34°56' E 136°45'0 0.0
2018-Apr-19 20:57N 34°56' E 136°45'0 0.1
2018-Apr-19 20:30N 34°56' E 136°45'0 0.1
2018-Apr-19 20:00N 34°56' E 136°45'0 0.1
2018-Apr-19 19:30N 34°56' E 136°45'0 0.0
2018-Apr-19 19:00N 34°56' E 136°45'0 0.0
2018-Apr-19 18:30N 34°56' E 136°45'0 0.0
2018-Apr-19 18:00N 34°56' E 136°45'0 0.0
2018-Apr-19 17:30N 34°56' E 136°45'0 0.0
2018-Apr-19 17:00N 34°56' E 136°45'0 0.1
2018-Apr-19 16:30N 34°56' E 136°45'0 0.0
2018-Apr-19 16:00N 34°56' E 136°45'0 0.0
2018-Apr-19 15:30N 34°56' E 136°45'0 0.0
2018-Apr-19 15:00N 34°56' E 136°45'0 0.0
2018-Apr-19 14:30N 34°56' E 136°45'0 0.0
2018-Apr-19 14:00N 34°56' E 136°45'0 0.1
2018-Apr-19 13:30N 34°56' E 136°45'0 0.0
2018-Apr-19 13:00N 34°56' E 136°45'0 0.0
2018-Apr-19 12:30N 34°56' E 136°45'0 0.0
2018-Apr-19 12:00N 34°56' E 136°45'0 0.0
2018-Apr-19 11:30N 34°56' E 136°45'0 0.0
2018-Apr-19 11:00N 34°56' E 136°45'0 0.0
2018-Apr-19 10:30N 34°56' E 136°45'0 0.0
2018-Apr-19 10:00N 34°56' E 136°45'0 0.1
2018-Apr-19 09:30N 34°56' E 136°45'0 0.0
2018-Apr-19 08:57N 34°56' E 136°45'0 0.0
2018-Apr-19 08:27N 34°56' E 136°45'0 0.1
2018-Apr-19 08:00N 34°56' E 136°45'0 0.0
2018-Apr-19 07:21N 34°56' E 136°45'0 0.0
2018-Apr-19 06:57N 34°56' E 136°45'0 0.0
2018-Apr-19 06:27N 34°56' E 136°45'0 0.0
2018-Apr-19 06:00N 34°56' E 136°45'0 0.1
2018-Apr-19 05:27N 34°56' E 136°45'0 0.1
2018-Apr-19 05:00N 34°56' E 136°45'0 0.1
2018-Apr-19 04:30N 34°56' E 136°45'0 0.0
2018-Apr-19 04:00N 34°56' E 136°45'0 0.0
2018-Apr-19 03:27N 34°56' E 136°45'0 0.0
2018-Apr-19 03:00N 34°56' E 136°45'0 0.0
2018-Apr-19 02:30N 34°56' E 136°45'0 0.0
2018-Apr-19 02:00N 34°56' E 136°45'0 0.0
2018-Apr-19 01:30N 34°56' E 136°45'0 0.0
2018-Apr-19 00:58N 34°56' E 136°45'0 0.0
2018-Apr-19 00:28N 34°56' E 136°45'0 0.1
2018-Apr-18 23:55N 34°56' E 136°45'0 0.1
2018-Apr-18 23:25N 34°56' E 136°45'0 0.0
2018-Apr-18 22:58N 34°56' E 136°45'0 0.0
2018-Apr-18 22:28N 34°56' E 136°45'0 0.1
2018-Apr-18 21:58N 34°56' E 136°45'0 0.0
2018-Apr-18 21:28N 34°56' E 136°45'0 0.0
2018-Apr-18 20:58N 34°56' E 136°45'0 0.0
2018-Apr-18 20:28N 34°56' E 136°45'0 0.1
2018-Apr-18 19:58N 34°56' E 136°45'0 0.0
2018-Apr-18 19:28N 34°56' E 136°45'0 0.1
2018-Apr-18 18:58N 34°56' E 136°45'1 2.4
2018-Apr-18 18:30N 34°56' E 136°46'612.7
2018-Apr-18 18:00N 34°49' E 136°47'713.1
2018-Apr-18 17:31N 34°43' E 136°49'913.1
2018-Apr-18 16:50N 34°37' E 136°56'513.5
2018-Apr-18 16:30N 34°34' E 137°01'4213.0
2018-Apr-18 13:16N 34°33' E 137°52'312.8
2018-Apr-18 13:01N 34°33' E 137°56'712.9
2018-Apr-18 12:28N 34°33' E 138°04'613.4
2018-Apr-18 11:59N 34°33' E 138°12'713.5
2018-Apr-18 11:30N 34°33' E 138°20'813.4
2018-Apr-18 10:55N 34°33' E 138°29'613.3
2018-Apr-18 10:30N 34°33' E 138°36'1013.6
2018-Apr-18 09:48N 34°33' E 138°48'614.0
2018-Apr-18 09:23N 34°33' E 138°55'613.6
2018-Apr-18 08:58N 34°36' E 139°01'714.2
2018-Apr-18 08:28N 34°41' E 139°07'613.4
2018-Apr-18 08:00N 34°45' E 139°12'612.8
2018-Apr-18 07:30N 34°50' E 139°18'813.0
2018-Apr-18 06:55N 34°55' E 139°25'512.8
2018-Apr-18 06:30N 34°59' E 139°29'713.2
2018-Apr-18 06:00N 35°03' E 139°36'714.3
2018-Apr-18 05:31N 35°07' E 139°42'713.9
2018-Apr-18 05:00N 35°14' E 139°46'713.0
2018-Apr-18 04:30N 35°19' E 139°43'612.2
2018-Apr-18 04:00N 35°25' E 139°45'713.9
2018-Apr-18 03:30N 35°30' E 139°51'612.8
2018-Apr-18 03:00N 35°31' E 139°59'3 3.1
2018-Apr-18 02:12N 35°30' E 140°02'0 0.0
2018-Apr-18 02:00N 35°30' E 140°02'0 0.0
2018-Apr-18 01:24N 35°30' E 140°02'0 0.0
2018-Apr-18 00:42N 35°30' E 140°02'0 0.0
2018-Apr-17 23:00N 35°30' E 140°02'1 1.5
2018-Apr-17 22:30N 35°30' E 140°01'2 4.9
2018-Apr-17 22:00N 35°30' E 139°58'3 5.1
2018-Apr-17 21:27N 35°29' E 139°55'0 0.0
2018-Apr-17 20:45N 35°29' E 139°55'0 0.0
2018-Apr-17 20:30N 35°29' E 139°55'0 0.0
2018-Apr-17 20:00N 35°29' E 139°55'0 0.0
2018-Apr-17 19:30N 35°29' E 139°55'0 0.0
2018-Apr-17 19:00N 35°29' E 139°55'0 0.0
2018-Apr-17 18:30N 35°29' E 139°55'0 0.0
2018-Apr-17 17:57N 35°29' E 139°55'0 0.0
2018-Apr-17 17:30N 35°29' E 139°55'0 0.0
2018-Apr-17 17:00N 35°29' E 139°55'0 0.0
2018-Apr-17 16:30N 35°29' E 139°55'0 0.0
2018-Apr-17 15:57N 35°29' E 139°55'0 0.0
2018-Apr-17 15:30N 35°29' E 139°55'0 0.0
2018-Apr-17 14:45N 35°29' E 139°55'0 0.0
2018-Apr-17 14:27N 35°29' E 139°55'0 0.0
2018-Apr-17 14:00N 35°29' E 139°55'0 0.0
2018-Apr-17 13:21N 35°29' E 139°55'0 0.0
2018-Apr-17 12:57N 35°29' E 139°55'0 0.0
2018-Apr-17 12:24N 35°29' E 139°55'0 0.0
2018-Apr-17 12:00N 35°29' E 139°55'0 0.0
2018-Apr-17 11:27N 35°29' E 139°55'0 0.1
2018-Apr-17 10:30N 35°29' E 139°55'0 0.0
2018-Apr-17 10:00N 35°29' E 139°55'0 0.0
2018-Apr-17 09:27N 35°29' E 139°55'0 0.0
2018-Apr-17 08:57N 35°29' E 139°55'0 0.0
2018-Apr-17 08:30N 35°29' E 139°55'0 0.0
2018-Apr-17 07:57N 35°29' E 139°55'0 0.0
2018-Apr-17 07:24N 35°29' E 139°55'0 0.0
2018-Apr-17 07:00N 35°29' E 139°55'0 0.0
2018-Apr-17 06:27N 35°29' E 139°55'0 0.0
2018-Apr-17 05:12N 35°29' E 139°55'0 0.1
2018-Apr-17 04:39N 35°29' E 139°55'0 0.0
2018-Apr-17 04:27N 35°29' E 139°55'1 1.5
2018-Apr-17 04:00N 35°29' E 139°54'612.2
2018-Apr-17 03:30N 35°27' E 139°47'611.3
2018-Apr-17 03:00N 35°23' E 139°42'611.0
2018-Apr-17 02:30N 35°28' E 139°46'4 6.2
2018-Apr-17 01:55N 35°31' E 139°46'0 0.1
2018-Apr-17 01:16N 35°31' E 139°46'0 0.0
2018-Apr-17 00:58N 35°31' E 139°46'0 0.0
2018-Apr-17 00:28N 35°31' E 139°46'0 0.0
2018-Apr-16 23:58N 35°31' E 139°46'0 0.0
2018-Apr-16 23:28N 35°31' E 139°46'0 0.0
2018-Apr-16 22:58N 35°31' E 139°46'0 0.0
2018-Apr-16 22:28N 35°31' E 139°46'0 0.0
2018-Apr-16 21:55N 35°31' E 139°46'1 1.7
2018-Apr-16 21:30N 35°31' E 139°46'4 8.0
2018-Apr-16 20:59N 35°27' E 139°43'4 7.1
2018-Apr-16 20:28N 35°24' E 139°45'0 0.0
2018-Apr-16 19:55N 35°24' E 139°45'0 0.1
2018-Apr-16 19:25N 35°24' E 139°45'0 0.0
2018-Apr-16 18:58N 35°24' E 139°45'0 0.0
2018-Apr-16 18:28N 35°24' E 139°45'0 0.0
2018-Apr-16 17:58N 35°24' E 139°45'0 0.0
2018-Apr-16 17:28N 35°24' E 139°45'0 0.0
2018-Apr-16 16:58N 35°24' E 139°45'0 0.0
2018-Apr-16 16:28N 35°24' E 139°45'0 0.0
2018-Apr-16 15:58N 35°24' E 139°45'0 0.0
2018-Apr-16 15:28N 35°24' E 139°45'0 0.0
2018-Apr-16 14:58N 35°24' E 139°45'0 0.0
2018-Apr-16 14:28N 35°24' E 139°45'0 0.0
2018-Apr-16 13:58N 35°24' E 139°45'0 0.0
2018-Apr-16 13:25N 35°24' E 139°45'0 0.0
2018-Apr-16 12:58N 35°24' E 139°45'0 0.0
2018-Apr-16 12:28N 35°24' E 139°45'0 0.0
2018-Apr-16 11:55N 35°24' E 139°45'0 0.0
2018-Apr-16 11:28N 35°24' E 139°45'0 0.0
2018-Apr-16 10:58N 35°24' E 139°45'0 0.0
2018-Apr-16 10:28N 35°24' E 139°45'0 0.0
2018-Apr-16 09:58N 35°24' E 139°45'0 0.0
2018-Apr-16 09:25N 35°24' E 139°45'0 0.0
2018-Apr-16 08:55N 35°24' E 139°45'0 0.0
2018-Apr-16 08:28N 35°25' E 139°45'0 0.0
2018-Apr-16 07:55N 35°24' E 139°45'0 0.1
2018-Apr-16 07:28N 35°24' E 139°45'4 7.9
2018-Apr-16 07:00N 35°27' E 139°42'2 3.5
2018-Apr-16 06:29N 35°28' E 139°40'0 0.0
2018-Apr-16 05:59N 35°28' E 139°40'0 0.0
2018-Apr-16 05:29N 35°28' E 139°40'0 0.0
2018-Apr-16 04:59N 35°28' E 139°40'0 0.0
2018-Apr-16 04:29N 35°28' E 139°40'0 0.0
2018-Apr-16 03:59N 35°28' E 139°40'  
Track history (hours):
 
Tides and Currents Weather Stations Pressure Air Temp Water Temp Dewpoint Dewpoint Depression Visibility Wind Speed Wind Dir Waves Ship Positions

Shinsei Maru

Last reported at 2018-Apr-26 03:30 UTC. Time now 2018-Apr-26 03:30 UTC.
Position N 35°30' E 139°45'.

Length 104 m; draft 6.5 m.

Type: Tanker. MMSI: 431301775.

Date/timePositionNaut miles runAvg speedWind from/ knotsBaromVisibWave heightAir tempDewpointWater temp
2018-Apr-26 03:30N 35°30' E 139°45'0 0.0
2018-Apr-26 03:00N 35°30' E 139°45'0 0.0
2018-Apr-26 02:30N 35°30' E 139°45'0 0.0
2018-Apr-26 02:00N 35°30' E 139°45'0 0.0
2018-Apr-26 01:30N 35°30' E 139°45'0 0.0
2018-Apr-26 01:00N 35°30' E 139°45'0 0.0
2018-Apr-26 00:30N 35°30' E 139°45'0 0.0
2018-Apr-26 00:00N 35°30' E 139°45'1 1.9
2018-Apr-25 23:30N 35°30' E 139°44'4 7.7
2018-Apr-25 23:00N 35°26' E 139°44'4 7.6
2018-Apr-25 22:29N 35°22' E 139°44'0 0.1
2018-Apr-25 21:59N 35°22' E 139°44'0 0.1
2018-Apr-25 21:29N 35°22' E 139°44'0 0.1
2018-Apr-25 20:59N 35°22' E 139°44'0 0.1
2018-Apr-25 20:26N 35°22' E 139°44'0 0.0
2018-Apr-25 19:56N 35°22' E 139°44'0 0.1
2018-Apr-25 19:29N 35°22' E 139°44'0 0.1
2018-Apr-25 18:59N 35°22' E 139°44'0 0.1
2018-Apr-25 18:29N 35°22' E 139°44'0 0.0
2018-Apr-25 17:56N 35°22' E 139°44'0 0.1
2018-Apr-25 17:29N 35°22' E 139°44'0 0.0
2018-Apr-25 16:59N 35°22' E 139°44'0 0.0
2018-Apr-25 16:29N 35°22' E 139°44'0 0.2
2018-Apr-25 15:59N 35°22' E 139°44'0 0.1
2018-Apr-25 15:29N 35°22' E 139°44'0 0.0
2018-Apr-25 14:59N 35°22' E 139°44'0 0.0
2018-Apr-25 14:29N 35°22' E 139°44'0 0.0
2018-Apr-25 13:59N 35°22' E 139°44'0 0.0
2018-Apr-25 13:29N 35°22' E 139°44'0 0.0
2018-Apr-25 12:59N 35°22' E 139°44'0 0.0
2018-Apr-25 12:29N 35°22' E 139°44'0 0.0
2018-Apr-25 11:59N 35°22' E 139°44'0 0.0
2018-Apr-25 11:29N 35°22' E 139°44'0 0.1
2018-Apr-25 10:59N 35°22' E 139°44'0 0.1
2018-Apr-25 10:29N 35°22' E 139°44'0 0.0
2018-Apr-25 09:59N 35°22' E 139°44'0 0.1
2018-Apr-25 09:29N 35°22' E 139°45'0 0.1
2018-Apr-25 08:59N 35°22' E 139°44'0 0.1
2018-Apr-25 08:29N 35°22' E 139°45'0 0.1
2018-Apr-25 07:59N 35°22' E 139°44'0 0.0
2018-Apr-25 07:29N 35°22' E 139°44'0 0.1
2018-Apr-25 06:59N 35°22' E 139°45'0 0.0
2018-Apr-25 06:26N 35°22' E 139°45'0 0.1
2018-Apr-25 05:59N 35°22' E 139°45'0 0.0
2018-Apr-25 05:26N 35°22' E 139°45'0 0.0
2018-Apr-25 04:59N 35°22' E 139°45'0 0.1
2018-Apr-25 04:29N 35°22' E 139°45'0 0.0
2018-Apr-25 03:59N 35°22' E 139°45'0 0.0
2018-Apr-25 03:29N 35°22' E 139°45'0 0.0
2018-Apr-25 02:59N 35°22' E 139°45'0 0.1
2018-Apr-25 02:29N 35°22' E 139°44'0 0.0
2018-Apr-25 01:59N 35°22' E 139°44'0 0.0
2018-Apr-25 01:29N 35°22' E 139°44'0 0.0
2018-Apr-25 00:59N 35°22' E 139°44'0 0.1
2018-Apr-25 00:29N 35°22' E 139°44'0 0.1
2018-Apr-24 23:59N 35°22' E 139°44'0 0.1
2018-Apr-24 23:29N 35°22' E 139°44'0 0.1
2018-Apr-24 22:59N 35°22' E 139°44'0 0.0
2018-Apr-24 22:29N 35°22' E 139°44'0 0.0
2018-Apr-24 21:59N 35°22' E 139°44'0 0.0
2018-Apr-24 21:29N 35°22' E 139°44'0 0.0
2018-Apr-24 20:59N 35°22' E 139°44'0 0.0
2018-Apr-24 20:29N 35°22' E 139°44'0 0.0
2018-Apr-24 19:59N 35°22' E 139°44'0 0.0
2018-Apr-24 19:29N 35°22' E 139°44'0 0.0
2018-Apr-24 18:59N 35°22' E 139°44'0 0.0
2018-Apr-24 18:29N 35°22' E 139°44'0 0.0
2018-Apr-24 17:59N 35°22' E 139°44'0 0.0
2018-Apr-24 17:29N 35°22' E 139°44'0 0.9
2018-Apr-24 17:00N 35°23' E 139°45'612.4
2018-Apr-24 16:30N 35°28' E 139°47'2 4.6
2018-Apr-24 15:59N 35°31' E 139°46'0 0.0
2018-Apr-24 15:28N 35°31' E 139°46'0 0.0
2018-Apr-24 14:59N 35°31' E 139°46'0 0.0
2018-Apr-24 14:26N 35°31' E 139°46'0 0.0
2018-Apr-24 13:58N 35°31' E 139°46'0 0.0
2018-Apr-24 13:28N 35°31' E 139°46'0 0.1
2018-Apr-24 12:56N 35°31' E 139°47'0 0.1
2018-Apr-24 12:28N 35°31' E 139°46'0 0.0
2018-Apr-24 11:55N 35°31' E 139°46'0 0.0
2018-Apr-24 11:29N 35°31' E 139°46'0 0.0
2018-Apr-24 10:59N 35°31' E 139°46'0 0.0
2018-Apr-24 10:28N 35°31' E 139°46'0 0.0
2018-Apr-24 09:58N 35°31' E 139°46'0 0.0
2018-Apr-24 09:28N 35°31' E 139°46'0 0.1
2018-Apr-24 08:55N 35°31' E 139°47'0 0.1
2018-Apr-24 08:29N 35°31' E 139°46'0 0.0
2018-Apr-24 07:58N 35°31' E 139°46'0 0.0
2018-Apr-24 07:25N 35°31' E 139°46'0 0.0
2018-Apr-24 06:58N 35°31' E 139°46'0 0.0
2018-Apr-24 06:29N 35°31' E 139°46'0 0.0
2018-Apr-24 05:59N 35°31' E 139°46'1 1.2
2018-Apr-24 05:30N 35°30' E 139°46'4 7.7
2018-Apr-24 05:00N 35°28' E 139°43'4 7.9
2018-Apr-24 04:30N 35°24' E 139°44'0 0.1
2018-Apr-24 04:00N 35°24' E 139°45'0 0.1
2018-Apr-24 03:30N 35°24' E 139°44'0 0.0
2018-Apr-24 03:00N 35°24' E 139°44'1 1.1
2018-Apr-24 02:30N 35°23' E 139°45'611.1
2018-Apr-24 02:00N 35°18' E 139°45'612.4
2018-Apr-24 01:29N 35°12' E 139°47'612.9
2018-Apr-24 01:00N 35°06' E 139°44'713.5
2018-Apr-24 00:30N 35°01' E 139°38'915.2
2018-Apr-23 23:56N 34°56' E 139°30'815.7
2018-Apr-23 23:27N 34°51' E 139°23'1515.5
2018-Apr-23 22:27N 34°41' E 139°09'815.4
2018-Apr-23 21:57N 34°36' E 139°01'714.2
2018-Apr-23 21:28N 34°32' E 138°54'814.0
2018-Apr-23 20:53N 34°32' E 138°44'613.5
2018-Apr-23 20:25N 34°31' E 138°37'18111.7
2018-Apr-23 04:57N 33°49' E 135°04'612.9
2018-Apr-23 04:31N 33°54' E 135°01'712.8
2018-Apr-23 04:00N 34°00' E 134°60'612.6
2018-Apr-23 03:31N 34°07' E 134°59'713.8
2018-Apr-23 03:00N 34°13' E 134°59'713.8
2018-Apr-23 02:31N 34°20' E 134°59'713.4
2018-Apr-23 02:00N 34°27' E 135°01'713.3
2018-Apr-23 01:30N 34°33' E 135°03'510.3
2018-Apr-23 01:00N 34°37' E 134°58'714.7
2018-Apr-23 00:31N 34°33' E 134°50'713.7
2018-Apr-23 00:01N 34°31' E 134°42'714.0
2018-Apr-22 23:30N 34°28' E 134°34'713.8
2018-Apr-22 23:00N 34°25' E 134°26'713.5
2018-Apr-22 22:30N 34°24' E 134°18'814.0
2018-Apr-22 21:56N 34°26' E 134°09'7113.2
2018-Apr-22 16:33N 34°08' E 132°46'114.6
2018-Apr-22 16:27N 34°07' E 132°44'614.2
2018-Apr-22 16:01N 34°04' E 132°38'714.1
2018-Apr-22 15:29N 34°01' E 132°30'612.5
2018-Apr-22 15:01N 34°05' E 132°24'713.0
2018-Apr-22 14:30N 34°09' E 132°19'4 8.6
2018-Apr-22 14:00N 34°12' E 132°15'0 0.0
2018-Apr-22 13:29N 34°12' E 132°15'0 0.0
2018-Apr-22 12:59N 34°12' E 132°15'0 0.0
2018-Apr-22 12:29N 34°12' E 132°15'0 0.0
2018-Apr-22 11:53N 34°12' E 132°15'0 0.0
2018-Apr-22 11:26N 34°12' E 132°15'0 0.0
2018-Apr-22 10:59N 34°12' E 132°15'0 0.0
2018-Apr-22 10:26N 34°12' E 132°15'0 0.0
2018-Apr-22 09:59N 34°12' E 132°15'0 0.0
2018-Apr-22 09:29N 34°12' E 132°15'0 0.0
2018-Apr-22 08:59N 34°12' E 132°15'0 0.0
2018-Apr-22 08:29N 34°12' E 132°15'0 0.0
2018-Apr-22 07:59N 34°12' E 132°15'0 0.0
2018-Apr-22 07:26N 34°12' E 132°15'0 0.0
2018-Apr-22 06:56N 34°12' E 132°15'0 0.0
2018-Apr-22 06:29N 34°12' E 132°15'0 0.0
2018-Apr-22 05:59N 34°12' E 132°15'0 0.0
2018-Apr-22 05:29N 34°12' E 132°15'0 0.0
2018-Apr-22 04:59N 34°12' E 132°15'0 0.0
2018-Apr-22 04:29N 34°12' E 132°15'0 0.0
2018-Apr-22 03:59N 34°12' E 132°15'0 0.0
2018-Apr-22 03:29N 34°12' E 132°15'0 0.0
2018-Apr-22 02:59N 34°12' E 132°15'0 0.0
2018-Apr-22 02:29N 34°12' E 132°15'0 0.0
2018-Apr-22 01:59N 34°12' E 132°15'0 0.0
2018-Apr-22 01:26N 34°12' E 132°15'0 0.0
2018-Apr-22 00:59N 34°12' E 132°15'0 0.0
2018-Apr-22 00:29N 34°12' E 132°15'0 0.0
2018-Apr-21 23:56N 34°12' E 132°15'1 1.5
2018-Apr-21 23:30N 34°12' E 132°15'3 5.1
2018-Apr-21 22:55N 34°10' E 132°19'0 0.0
2018-Apr-21 22:28N 34°10' E 132°19'0 0.0
2018-Apr-21 21:55N 34°10' E 132°19'0 0.0
2018-Apr-21 21:25N 34°10' E 132°19'0 0.0
2018-Apr-21 20:58N 34°10' E 132°19'0 0.0
2018-Apr-21 20:25N 34°10' E 132°19'0 0.0
2018-Apr-21 19:10N 34°10' E 132°19'0 0.0
2018-Apr-21 18:52N 34°10' E 132°19'0 0.0
2018-Apr-21 18:19N 34°10' E 132°19'0 0.0
2018-Apr-21 17:49N 34°10' E 132°19'0 0.0
2018-Apr-21 17:28N 34°10' E 132°19'0 0.0
2018-Apr-21 16:40N 34°10' E 132°19'0 0.0
2018-Apr-21 16:22N 34°10' E 132°19'0 0.0
2018-Apr-21 15:58N 34°10' E 132°19'0 0.0
2018-Apr-21 15:28N 34°10' E 132°19'0 0.0
2018-Apr-21 14:58N 34°10' E 132°19'0 0.1
2018-Apr-21 14:28N 34°10' E 132°19'0 0.0
2018-Apr-21 13:58N 34°10' E 132°19'0 0.0
2018-Apr-21 13:22N 34°10' E 132°19'0 0.0
2018-Apr-21 12:55N 34°10' E 132°19'0 0.0
2018-Apr-21 12:28N 34°10' E 132°19'0 0.0
2018-Apr-21 11:55N 34°10' E 132°19'0 0.0
2018-Apr-21 11:28N 34°10' E 132°19'0 0.0
2018-Apr-21 10:58N 34°10' E 132°19'0 0.0
2018-Apr-21 10:22N 34°10' E 132°19'0 0.0
2018-Apr-21 09:58N 34°10' E 132°19'0 0.0
2018-Apr-21 09:25N 34°10' E 132°19'0 0.0
2018-Apr-21 08:58N 34°11' E 132°19'0 0.0
2018-Apr-21 07:55N 34°11' E 132°19'7 8.9
2018-Apr-21 07:09N 34°06' E 132°24'712.4
2018-Apr-21 06:36N 34°02' E 132°31'114.0
2018-Apr-21 06:30N 34°02' E 132°32'714.1
2018-Apr-21 06:00N 34°05' E 132°40'7212.5
2018-Apr-21 00:16N 34°27' E 134°03'414.5
2018-Apr-21 00:00N 34°26' E 134°08'713.9
2018-Apr-20 23:31N 34°25' E 134°16'713.7
2018-Apr-20 23:00N 34°26' E 134°24'713.9
2018-Apr-20 22:30N 34°29' E 134°32'713.5
2018-Apr-20 22:00N 34°31' E 134°39'713.5
2018-Apr-20 21:30N 34°34' E 134°47'612.4
2018-Apr-20 21:00N 34°36' E 134°54'611.6
2018-Apr-20 20:31N 34°38' E 135°01'611.2
2018-Apr-20 20:00N 34°34' E 135°06'713.3
2018-Apr-20 19:30N 34°28' E 135°04'713.6
2018-Apr-20 19:01N 34°22' E 135°01'613.0
2018-Apr-20 18:31N 34°15' E 134°60'714.0
2018-Apr-20 18:00N 34°08' E 135°01'714.0
2018-Apr-20 17:31N 34°01' E 135°01'713.6
2018-Apr-20 17:01N 33°54' E 135°02'713.4
2018-Apr-20 16:29N 33°48' E 135°06'5011.7
2018-Apr-20 12:14N 33°33' E 136°03'514.0
2018-Apr-20 11:51N 33°37' E 136°08'1413.7
2018-Apr-20 10:52N 33°46' E 136°20'2013.6
2018-Apr-20 09:25N 33°59' E 136°37'613.7
2018-Apr-20 08:59N 34°03' E 136°43'714.0
2018-Apr-20 08:29N 34°08' E 136°49'2113.1
2018-Apr-20 06:53N 34°26' E 137°01'513.3
2018-Apr-20 06:30N 34°32' E 137°01'1212.9
2018-Apr-20 05:34N 34°40' E 136°51'113.7
2018-Apr-20 05:30N 34°40' E 136°50'714.1
2018-Apr-20 05:01N 34°47' E 136°46'714.0
2018-Apr-20 04:30N 34°54' E 136°46'713.3
2018-Apr-20 04:00N 34°60' E 136°49'5 8.1
2018-Apr-20 03:26N 35°04' E 136°52'0 0.0
2018-Apr-20 02:59N 35°04' E 136°52'0 0.0
2018-Apr-20 02:29N 35°04' E 136°52'0 0.0
2018-Apr-20 01:59N 35°04' E 136°52'0 0.0
2018-Apr-20 01:29N 35°04' E 136°52'0 0.0
2018-Apr-20 00:59N 35°04' E 136°52'0 0.0
2018-Apr-20 00:29N 35°04' E 136°52'0 0.0
2018-Apr-19 23:56N 35°04' E 136°52'0 0.5
2018-Apr-19 23:31N 35°04' E 136°52'4 7.7
2018-Apr-19 23:00N 35°00' E 136°50'510.2
2018-Apr-19 22:30N 34°57' E 136°45'0 0.9
2018-Apr-19 22:00N 34°56' E 136°45'0 0.1
2018-Apr-19 21:30N 34°56' E 136°45'0 0.0
2018-Apr-19 20:57N 34°56' E 136°45'0 0.1
2018-Apr-19 20:30N 34°56' E 136°45'0 0.1
2018-Apr-19 20:00N 34°56' E 136°45'0 0.1
2018-Apr-19 19:30N 34°56' E 136°45'0 0.0
2018-Apr-19 19:00N 34°56' E 136°45'0 0.0
2018-Apr-19 18:30N 34°56' E 136°45'0 0.0
2018-Apr-19 18:00N 34°56' E 136°45'0 0.0
2018-Apr-19 17:30N 34°56' E 136°45'0 0.0
2018-Apr-19 17:00N 34°56' E 136°45'0 0.1
2018-Apr-19 16:30N 34°56' E 136°45'0 0.0
2018-Apr-19 16:00N 34°56' E 136°45'0 0.0
2018-Apr-19 15:30N 34°56' E 136°45'0 0.0
2018-Apr-19 15:00N 34°56' E 136°45'0 0.0
2018-Apr-19 14:30N 34°56' E 136°45'0 0.0
2018-Apr-19 14:00N 34°56' E 136°45'0 0.1
2018-Apr-19 13:30N 34°56' E 136°45'0 0.0
2018-Apr-19 13:00N 34°56' E 136°45'0 0.0
2018-Apr-19 12:30N 34°56' E 136°45'0 0.0
2018-Apr-19 12:00N 34°56' E 136°45'0 0.0
2018-Apr-19 11:30N 34°56' E 136°45'0 0.0
2018-Apr-19 11:00N 34°56' E 136°45'0 0.0
2018-Apr-19 10:30N 34°56' E 136°45'0 0.0
2018-Apr-19 10:00N 34°56' E 136°45'0 0.1
2018-Apr-19 09:30N 34°56' E 136°45'0 0.0
2018-Apr-19 08:57N 34°56' E 136°45'0 0.0
2018-Apr-19 08:27N 34°56' E 136°45'0 0.1
2018-Apr-19 08:00N 34°56' E 136°45'0 0.0
2018-Apr-19 07:21N 34°56' E 136°45'0 0.0
2018-Apr-19 06:57N 34°56' E 136°45'0 0.0
2018-Apr-19 06:27N 34°56' E 136°45'0 0.0
2018-Apr-19 06:00N 34°56' E 136°45'0 0.1
2018-Apr-19 05:27N 34°56' E 136°45'0 0.1
2018-Apr-19 05:00N 34°56' E 136°45'0 0.1
2018-Apr-19 04:30N 34°56' E 136°45'0 0.0
2018-Apr-19 04:00N 34°56' E 136°45'0 0.0
2018-Apr-19 03:27N 34°56' E 136°45'0 0.0
2018-Apr-19 03:00N 34°56' E 136°45'0 0.0
2018-Apr-19 02:30N 34°56' E 136°45'0 0.0
2018-Apr-19 02:00N 34°56' E 136°45'0 0.0
2018-Apr-19 01:30N 34°56' E 136°45'0 0.0
2018-Apr-19 00:58N 34°56' E 136°45'0 0.0
2018-Apr-19 00:28N 34°56' E 136°45'0 0.1
2018-Apr-18 23:55N 34°56' E 136°45'0 0.1
2018-Apr-18 23:25N 34°56' E 136°45'0 0.0
2018-Apr-18 22:58N 34°56' E 136°45'0 0.0
2018-Apr-18 22:28N 34°56' E 136°45'0 0.1
2018-Apr-18 21:58N 34°56' E 136°45'0 0.0
2018-Apr-18 21:28N 34°56' E 136°45'0 0.0
2018-Apr-18 20:58N 34°56' E 136°45'0 0.0
2018-Apr-18 20:28N 34°56' E 136°45'0 0.1
2018-Apr-18 19:58N 34°56' E 136°45'0 0.0
2018-Apr-18 19:28N 34°56' E 136°45'0 0.1
2018-Apr-18 18:58N 34°56' E 136°45'1 2.4
2018-Apr-18 18:30N 34°56' E 136°46'612.7
2018-Apr-18 18:00N 34°49' E 136°47'713.1
2018-Apr-18 17:31N 34°43' E 136°49'913.1
2018-Apr-18 16:50N 34°37' E 136°56'513.5
2018-Apr-18 16:30N 34°34' E 137°01'4213.0
2018-Apr-18 13:16N 34°33' E 137°52'312.8
2018-Apr-18 13:01N 34°33' E 137°56'712.9
2018-Apr-18 12:28N 34°33' E 138°04'613.4
2018-Apr-18 11:59N 34°33' E 138°12'713.5
2018-Apr-18 11:30N 34°33' E 138°20'813.4
2018-Apr-18 10:55N 34°33' E 138°29'613.3
2018-Apr-18 10:30N 34°33' E 138°36'1013.6
2018-Apr-18 09:48N 34°33' E 138°48'614.0
2018-Apr-18 09:23N 34°33' E 138°55'613.6
2018-Apr-18 08:58N 34°36' E 139°01'714.2
2018-Apr-18 08:28N 34°41' E 139°07'613.4
2018-Apr-18 08:00N 34°45' E 139°12'612.8
2018-Apr-18 07:30N 34°50' E 139°18'813.0
2018-Apr-18 06:55N 34°55' E 139°25'512.8
2018-Apr-18 06:30N 34°59' E 139°29'713.2
2018-Apr-18 06:00N 35°03' E 139°36'714.3
2018-Apr-18 05:31N 35°07' E 139°42'713.9
2018-Apr-18 05:00N 35°14' E 139°46'713.0
2018-Apr-18 04:30N 35°19' E 139°43'612.2
2018-Apr-18 04:00N 35°25' E 139°45'713.9
2018-Apr-18 03:30N 35°30' E 139°51'612.8
2018-Apr-18 03:00N 35°31' E 139°59'3 3.1
2018-Apr-18 02:12N 35°30' E 140°02'0 0.0
2018-Apr-18 02:00N 35°30' E 140°02'0 0.0
2018-Apr-18 01:24N 35°30' E 140°02'0 0.0
2018-Apr-18 00:42N 35°30' E 140°02'0 0.0
2018-Apr-17 23:00N 35°30' E 140°02'1 1.5
2018-Apr-17 22:30N 35°30' E 140°01'2 4.9
2018-Apr-17 22:00N 35°30' E 139°58'3 5.1
2018-Apr-17 21:27N 35°29' E 139°55'0 0.0
2018-Apr-17 20:45N 35°29' E 139°55'0 0.0
2018-Apr-17 20:30N 35°29' E 139°55'0 0.0
2018-Apr-17 20:00N 35°29' E 139°55'0 0.0
2018-Apr-17 19:30N 35°29' E 139°55'0 0.0
2018-Apr-17 19:00N 35°29' E 139°55'0 0.0
2018-Apr-17 18:30N 35°29' E 139°55'0 0.0
2018-Apr-17 17:57N 35°29' E 139°55'0 0.0
2018-Apr-17 17:30N 35°29' E 139°55'0 0.0
2018-Apr-17 17:00N 35°29' E 139°55'0 0.0
2018-Apr-17 16:30N 35°29' E 139°55'0 0.0
2018-Apr-17 15:57N 35°29' E 139°55'0 0.0
2018-Apr-17 15:30N 35°29' E 139°55'0 0.0
2018-Apr-17 14:45N 35°29' E 139°55'0 0.0
2018-Apr-17 14:27N 35°29' E 139°55'0 0.0
2018-Apr-17 14:00N 35°29' E 139°55'0 0.0
2018-Apr-17 13:21N 35°29' E 139°55'0 0.0
2018-Apr-17 12:57N 35°29' E 139°55'0 0.0
2018-Apr-17 12:24N 35°29' E 139°55'0 0.0
2018-Apr-17 12:00N 35°29' E 139°55'0 0.0
2018-Apr-17 11:27N 35°29' E 139°55'0 0.1
2018-Apr-17 10:30N 35°29' E 139°55'0 0.0
2018-Apr-17 10:00N 35°29' E 139°55'0 0.0
2018-Apr-17 09:27N 35°29' E 139°55'0 0.0
2018-Apr-17 08:57N 35°29' E 139°55'0 0.0
2018-Apr-17 08:30N 35°29' E 139°55'0 0.0
2018-Apr-17 07:57N 35°29' E 139°55'0 0.0
2018-Apr-17 07:24N 35°29' E 139°55'0 0.0
2018-Apr-17 07:00N 35°29' E 139°55'0 0.0
2018-Apr-17 06:27N 35°29' E 139°55'0 0.0
2018-Apr-17 05:12N 35°29' E 139°55'0 0.1
2018-Apr-17 04:39N 35°29' E 139°55'0 0.0
2018-Apr-17 04:27N 35°29' E 139°55'1 1.5
2018-Apr-17 04:00N 35°29' E 139°54'612.2
2018-Apr-17 03:30N 35°27' E 139°47'611.3
2018-Apr-17 03:00N 35°23' E 139°42'611.0
2018-Apr-17 02:30N 35°28' E 139°46'4 6.2
2018-Apr-17 01:55N 35°31' E 139°46'0 0.1
2018-Apr-17 01:16N 35°31' E 139°46'0 0.0
2018-Apr-17 00:58N 35°31' E 139°46'0 0.0
2018-Apr-17 00:28N 35°31' E 139°46'0 0.0
2018-Apr-16 23:58N 35°31' E 139°46'0 0.0
2018-Apr-16 23:28N 35°31' E 139°46'0 0.0
2018-Apr-16 22:58N 35°31' E 139°46'0 0.0
2018-Apr-16 22:28N 35°31' E 139°46'0 0.0
2018-Apr-16 21:55N 35°31' E 139°46'1 1.7
2018-Apr-16 21:30N 35°31' E 139°46'4 8.0
2018-Apr-16 20:59N 35°27' E 139°43'4 7.1
2018-Apr-16 20:28N 35°24' E 139°45'0 0.0
2018-Apr-16 19:55N 35°24' E 139°45'0 0.1
2018-Apr-16 19:25N 35°24' E 139°45'0 0.0
2018-Apr-16 18:58N 35°24' E 139°45'0 0.0
2018-Apr-16 18:28N 35°24' E 139°45'0 0.0
2018-Apr-16 17:58N 35°24' E 139°45'0 0.0
2018-Apr-16 17:28N 35°24' E 139°45'0 0.0
2018-Apr-16 16:58N 35°24' E 139°45'0 0.0
2018-Apr-16 16:28N 35°24' E 139°45'0 0.0
2018-Apr-16 15:58N 35°24' E 139°45'0 0.0
2018-Apr-16 15:28N 35°24' E 139°45'0 0.0
2018-Apr-16 14:58N 35°24' E 139°45'0 0.0
2018-Apr-16 14:28N 35°24' E 139°45'0 0.0
2018-Apr-16 13:58N 35°24' E 139°45'0 0.0
2018-Apr-16 13:25N 35°24' E 139°45'0 0.0
2018-Apr-16 12:58N 35°24' E 139°45'0 0.0
2018-Apr-16 12:28N 35°24' E 139°45'0 0.0
2018-Apr-16 11:55N 35°24' E 139°45'0 0.0
2018-Apr-16 11:28N 35°24' E 139°45'0 0.0
2018-Apr-16 10:58N 35°24' E 139°45'0 0.0
2018-Apr-16 10:28N 35°24' E 139°45'0 0.0
2018-Apr-16 09:58N 35°24' E 139°45'0 0.0
2018-Apr-16 09:25N 35°24' E 139°45'0 0.0
2018-Apr-16 08:55N 35°24' E 139°45'0 0.0
2018-Apr-16 08:28N 35°25' E 139°45'0 0.0
2018-Apr-16 07:55N 35°24' E 139°45'0 0.1
2018-Apr-16 07:28N 35°24' E 139°45'4 7.9
2018-Apr-16 07:00N 35°27' E 139°42'2 3.5
2018-Apr-16 06:29N 35°28' E 139°40'0 0.0
2018-Apr-16 05:59N 35°28' E 139°40'0 0.0
2018-Apr-16 05:29N 35°28' E 139°40'0 0.0
2018-Apr-16 04:59N 35°28' E 139°40'0 0.0
2018-Apr-16 04:29N 35°28' E 139°40'0 0.0
2018-Apr-16 03:59N 35°28' E 139°40'  

Dump ship's entire track history